createdAt,value
2023-04-22T00:00:29.112Z,1044.00
2023-04-22T00:01:29.089Z,1050.00
2023-04-22T00:02:29.158Z,1049.00
2023-04-22T00:03:29.340Z,1055.00
2023-04-22T00:04:29.292Z,1042.00
2023-04-22T00:05:29.186Z,1049.00
2023-04-22T00:06:29.041Z,1061.00
2023-04-22T00:07:29.001Z,1032.00
2023-04-22T00:08:28.991Z,1051.00
2023-04-22T00:09:28.966Z,1052.00
2023-04-22T00:10:28.953Z,1043.00
2023-04-22T00:11:28.916Z,1030.00
2023-04-22T00:12:28.912Z,1064.00
2023-04-22T00:13:28.888Z,1040.00
2023-04-22T00:14:28.889Z,1050.00
2023-04-22T00:15:28.861Z,1043.00
2023-04-22T00:16:28.932Z,1034.00
2023-04-22T00:17:28.895Z,1052.00
2023-04-22T00:18:28.821Z,1036.00
2023-04-22T00:19:28.800Z,1032.00
2023-04-22T00:20:28.796Z,1044.00
2023-04-22T00:21:28.767Z,1030.00
2023-04-22T00:22:28.736Z,1033.00
2023-04-22T00:23:28.708Z,1032.00
2023-04-22T00:24:28.696Z,1045.00
2023-04-22T00:25:28.677Z,1020.00
2023-04-22T00:26:28.667Z,1032.00
2023-04-22T00:27:28.660Z,1022.00
2023-04-22T00:28:28.656Z,1041.00
2023-04-22T00:29:28.664Z,1036.00
2023-04-22T00:30:28.648Z,1021.00
2023-04-22T00:31:28.766Z,1019.00
2023-04-22T00:32:28.657Z,1041.00
2023-04-22T00:33:28.620Z,1041.00
2023-04-22T00:34:28.600Z,1040.00
2023-04-22T00:35:28.595Z,1030.00
2023-04-22T00:36:28.573Z,1033.00
2023-04-22T00:37:28.541Z,1027.00
2023-04-22T00:38:28.524Z,1031.00
2023-04-22T00:39:28.594Z,1032.00
2023-04-22T00:40:28.502Z,1027.00
2023-04-22T00:41:28.472Z,1030.00
2023-04-22T00:42:28.462Z,1030.00
2023-04-22T00:43:28.437Z,1034.00
2023-04-22T00:44:28.416Z,1022.00
2023-04-22T00:45:28.409Z,1025.00
2023-04-22T00:46:28.409Z,1017.00
2023-04-22T00:47:28.410Z,1011.00
2023-04-22T00:48:28.956Z,1027.00
2023-04-22T00:49:28.343Z,1028.00
2023-04-22T00:50:28.319Z,1026.00
2023-04-22T00:51:28.307Z,1028.00
2023-04-22T00:52:28.290Z,1028.00
2023-04-22T00:53:28.276Z,1015.00
2023-04-22T00:54:28.251Z,1022.00
2023-04-22T00:55:28.250Z,1020.00
2023-04-22T00:56:28.214Z,1005.00
2023-04-22T00:57:28.191Z,1018.00
2023-04-22T00:58:28.177Z,1011.00
2023-04-22T00:59:28.187Z,1007.00
2023-04-22T01:00:28.226Z,999.00
2023-04-22T01:01:28.214Z,1006.00
2023-04-22T01:02:28.267Z,1016.00
2023-04-22T01:03:28.210Z,1001.00
2023-04-22T01:04:28.123Z,986.00
2023-04-22T01:05:28.082Z,1004.00
2023-04-22T01:06:28.061Z,989.00
2023-04-22T01:07:28.037Z,989.00
2023-04-22T01:08:28.027Z,992.00
2023-04-22T01:09:28.011Z,991.00
2023-04-22T01:10:28.009Z,988.00
2023-04-22T01:11:28.001Z,994.00
2023-04-22T01:12:28.041Z,986.00
2023-04-22T01:13:27.953Z,989.00
2023-04-22T01:14:27.939Z,979.00
2023-04-22T01:15:27.945Z,989.00
2023-04-22T01:16:27.957Z,987.00
2023-04-22T01:17:27.915Z,980.00
2023-04-22T01:18:27.857Z,979.00
2023-04-22T01:19:27.853Z,967.00
2023-04-22T01:20:27.821Z,978.00
2023-04-22T01:21:27.795Z,980.00
2023-04-22T01:22:27.761Z,973.00
2023-04-22T01:23:27.761Z,951.00
2023-04-22T01:24:27.718Z,974.00
2023-04-22T01:25:27.708Z,978.00
2023-04-22T01:26:27.660Z,970.00
2023-04-22T01:27:27.634Z,970.00
2023-04-22T01:28:27.613Z,973.00
2023-04-22T01:29:27.600Z,959.00
2023-04-22T01:30:27.589Z,961.00
2023-04-22T01:31:27.581Z,975.00
2023-04-22T01:32:27.631Z,966.00
2023-04-22T01:33:27.544Z,957.00
2023-04-22T01:34:27.550Z,971.00
2023-04-22T01:35:27.562Z,976.00
2023-04-22T01:36:27.557Z,942.00
2023-04-22T01:37:27.562Z,955.00
2023-04-22T01:38:27.567Z,944.00
2023-04-22T01:39:27.596Z,967.00
2023-04-22T01:40:27.583Z,961.00
2023-04-22T01:41:27.588Z,946.00
2023-04-22T01:42:27.573Z,948.00
2023-04-22T01:43:27.538Z,949.00
2023-04-22T01:44:27.519Z,950.00
2023-04-22T01:45:27.508Z,961.00
2023-04-22T01:46:27.617Z,950.00
2023-04-22T01:47:27.458Z,950.00
2023-04-22T01:48:27.435Z,961.00
2023-04-22T01:49:27.436Z,954.00
2023-04-22T01:50:27.397Z,961.00
2023-04-22T01:51:27.387Z,951.00
2023-04-22T01:52:27.358Z,954.00
2023-04-22T01:53:27.354Z,942.00
2023-04-22T01:54:27.328Z,943.00
2023-04-22T01:55:27.342Z,937.00
2023-04-22T01:56:27.281Z,944.00
2023-04-22T01:57:27.257Z,935.00
2023-04-22T01:58:27.235Z,948.00
2023-04-22T01:59:27.224Z,933.00
2023-04-22T02:00:27.195Z,943.00
2023-04-22T02:01:27.243Z,950.00
2023-04-22T02:02:27.204Z,929.00
2023-04-22T02:03:27.277Z,928.00
2023-04-22T02:04:27.269Z,947.00
2023-04-22T02:05:27.194Z,933.00
2023-04-22T02:06:27.200Z,941.00
2023-04-22T02:07:27.210Z,929.00
2023-04-22T02:08:27.222Z,929.00
2023-04-22T02:09:27.215Z,933.00
2023-04-22T02:10:27.227Z,936.00
2023-04-22T02:11:27.244Z,927.00
2023-04-22T02:12:27.266Z,933.00
2023-04-22T02:13:27.258Z,931.00
2023-04-22T02:14:27.263Z,931.00
2023-04-22T02:15:27.283Z,928.00
2023-04-22T02:16:27.308Z,929.00
2023-04-22T02:17:27.279Z,929.00
2023-04-22T02:18:27.253Z,931.00
2023-04-22T02:19:27.273Z,929.00
2023-04-22T02:20:27.234Z,920.00
2023-04-22T02:21:27.220Z,906.00
2023-04-22T02:22:27.222Z,927.00
2023-04-22T02:23:27.198Z,916.00
2023-04-22T02:24:27.232Z,923.00
2023-04-22T02:25:27.173Z,912.00
2023-04-22T02:26:27.134Z,916.00
2023-04-22T02:27:27.122Z,915.00
2023-04-22T02:28:27.110Z,921.00
2023-04-22T02:29:27.117Z,915.00
2023-04-22T02:30:27.121Z,921.00
2023-04-22T02:31:27.152Z,915.00
2023-04-22T02:32:27.091Z,920.00
2023-04-22T02:33:27.055Z,892.00
2023-04-22T02:34:27.061Z,891.00
2023-04-22T02:35:27.020Z,883.00
2023-04-22T02:36:27.003Z,895.00
2023-04-22T02:37:26.992Z,896.00
2023-04-22T02:38:26.997Z,903.00
2023-04-22T02:39:26.988Z,899.00
2023-04-22T02:40:27.030Z,877.00
2023-04-22T02:41:26.995Z,886.00
2023-04-22T02:42:26.994Z,900.00
2023-04-22T02:43:27.013Z,885.00
2023-04-22T02:44:27.022Z,880.00
2023-04-22T02:45:27.030Z,873.00
2023-04-22T02:46:27.056Z,881.00
2023-04-22T02:47:27.081Z,878.00
2023-04-22T02:48:27.045Z,875.00
2023-04-22T02:49:27.066Z,864.00
2023-04-22T02:50:27.078Z,866.00
2023-04-22T02:51:27.097Z,871.00
2023-04-22T02:52:27.086Z,868.00
2023-04-22T02:53:27.107Z,854.00
2023-04-22T02:54:27.111Z,882.00
2023-04-22T02:55:27.144Z,866.00
2023-04-22T02:56:27.124Z,862.00
2023-04-22T02:57:27.154Z,853.00
2023-04-22T02:58:27.148Z,871.00
2023-04-22T02:59:27.147Z,867.00
2023-04-22T03:00:27.181Z,864.00
2023-04-22T03:01:27.253Z,863.00
2023-04-22T03:02:27.356Z,867.00
2023-04-22T03:03:27.296Z,855.00
2023-04-22T03:04:27.251Z,851.00
2023-04-22T03:05:27.189Z,863.00
2023-04-22T03:06:27.197Z,851.00
2023-04-22T03:07:27.198Z,850.00
2023-04-22T03:08:27.210Z,856.00
2023-04-22T03:09:27.242Z,851.00
2023-04-22T03:10:27.269Z,845.00
2023-04-22T03:11:27.276Z,849.00
2023-04-22T03:12:27.272Z,832.00
2023-04-22T03:13:27.303Z,824.00
2023-04-22T03:14:27.306Z,852.00
2023-04-22T03:15:27.321Z,840.00
2023-04-22T03:16:27.377Z,834.00
2023-04-22T03:17:27.375Z,836.00
2023-04-22T03:18:27.348Z,854.00
2023-04-22T03:19:27.365Z,826.00
2023-04-22T03:20:27.360Z,827.00
2023-04-22T03:21:27.335Z,830.00
2023-04-22T03:22:27.319Z,833.00
2023-04-22T03:23:27.310Z,837.00
2023-04-22T03:24:27.295Z,844.00
2023-04-22T03:25:27.267Z,842.00
2023-04-22T03:26:27.234Z,833.00
2023-04-22T03:27:27.226Z,842.00
2023-04-22T03:28:27.217Z,838.00
2023-04-22T03:29:27.191Z,838.00
2023-04-22T03:30:27.175Z,843.00
2023-04-22T03:31:27.183Z,838.00
2023-04-22T03:32:27.158Z,827.00
2023-04-22T03:33:27.143Z,832.00
2023-04-22T03:34:27.185Z,847.00
2023-04-22T03:35:27.131Z,837.00
2023-04-22T03:36:27.113Z,818.00
2023-04-22T03:37:27.107Z,828.00
2023-04-22T03:38:27.104Z,816.00
2023-04-22T03:39:27.103Z,825.00
2023-04-22T03:40:27.135Z,820.00
2023-04-22T03:41:27.123Z,815.00
2023-04-22T03:42:27.128Z,814.00
2023-04-22T03:43:27.162Z,828.00
2023-04-22T03:44:27.157Z,820.00
2023-04-22T03:45:27.220Z,823.00
2023-04-22T03:46:27.280Z,816.00
2023-04-22T03:47:27.253Z,801.00
2023-04-22T03:48:27.244Z,815.00
2023-04-22T03:49:27.259Z,816.00
2023-04-22T03:50:27.273Z,814.00
2023-04-22T03:51:27.405Z,811.00
2023-04-22T03:52:27.307Z,808.00
2023-04-22T03:53:27.339Z,810.00
2023-04-22T03:54:27.344Z,816.00
2023-04-22T03:55:27.373Z,803.00
2023-04-22T03:56:27.367Z,809.00
2023-04-22T03:57:27.398Z,802.00
2023-04-22T03:58:27.416Z,798.00
2023-04-22T03:59:27.416Z,797.00
2023-04-22T04:00:27.457Z,795.00
2023-04-22T04:01:27.444Z,801.00
2023-04-22T04:02:27.612Z,803.00
2023-04-22T04:03:30.279Z,805.00
2023-04-22T04:04:27.628Z,796.00
2023-04-22T04:05:27.530Z,797.00
2023-04-22T04:06:27.417Z,798.00
2023-04-22T04:07:27.403Z,802.00
2023-04-22T04:08:27.378Z,802.00
2023-04-22T04:09:27.357Z,797.00
2023-04-22T04:10:27.355Z,800.00
2023-04-22T04:11:27.311Z,805.00
2023-04-22T04:12:27.289Z,789.00
2023-04-22T04:13:27.277Z,796.00
2023-04-22T04:14:27.258Z,792.00
2023-04-22T04:15:27.248Z,797.00
2023-04-22T04:16:27.263Z,788.00
2023-04-22T04:17:27.219Z,797.00
2023-04-22T04:18:27.191Z,786.00
2023-04-22T04:19:27.179Z,775.00
2023-04-22T04:20:27.184Z,791.00
2023-04-22T04:21:27.163Z,786.00
2023-04-22T04:22:27.222Z,780.00
2023-04-22T04:23:27.218Z,795.00
2023-04-22T04:24:27.220Z,775.00
2023-04-22T04:25:27.252Z,785.00
2023-04-22T04:26:27.262Z,783.00
2023-04-22T04:27:27.276Z,774.00
2023-04-22T04:28:27.284Z,778.00
2023-04-22T04:29:27.322Z,768.00
2023-04-22T04:30:27.338Z,769.00
2023-04-22T04:31:27.412Z,771.00
2023-04-22T04:32:27.424Z,778.00
2023-04-22T04:33:27.367Z,771.00
2023-04-22T04:34:27.379Z,757.00
2023-04-22T04:35:27.407Z,776.00
2023-04-22T04:36:27.415Z,763.00
2023-04-22T04:37:27.438Z,760.00
2023-04-22T04:38:27.460Z,763.00
2023-04-22T04:39:27.470Z,757.00
2023-04-22T04:40:27.649Z,759.00
2023-04-22T04:41:27.503Z,753.00
2023-04-22T04:42:27.500Z,752.00
2023-04-22T04:43:27.522Z,753.00
2023-04-22T04:44:27.572Z,754.00
2023-04-22T04:45:27.497Z,755.00
2023-04-22T04:46:27.581Z,757.00
2023-04-22T04:47:27.514Z,753.00
2023-04-22T04:48:27.458Z,761.00
2023-04-22T04:49:27.438Z,761.00
2023-04-22T04:50:27.440Z,755.00
2023-04-22T04:51:27.405Z,750.00
2023-04-22T04:52:27.395Z,752.00
2023-04-22T04:53:27.375Z,737.00
2023-04-22T04:54:27.378Z,745.00
2023-04-22T04:55:27.352Z,741.00
2023-04-22T04:56:27.338Z,744.00
2023-04-22T04:57:27.322Z,738.00
2023-04-22T04:58:27.312Z,726.00
2023-04-22T04:59:27.303Z,732.00
2023-04-22T05:00:27.292Z,733.00
2023-04-22T05:01:27.315Z,734.00
2023-04-22T05:02:27.359Z,735.00
2023-04-22T05:03:27.309Z,725.00
2023-04-22T05:04:27.597Z,721.00
2023-04-22T05:05:27.203Z,730.00
2023-04-22T05:06:27.194Z,727.00
2023-04-22T05:07:27.161Z,716.00
2023-04-22T05:08:27.146Z,732.00
2023-04-22T05:09:27.156Z,722.00
2023-04-22T05:10:27.101Z,721.00
2023-04-22T05:11:27.125Z,710.00
2023-04-22T05:12:27.069Z,717.00
2023-04-22T05:13:27.041Z,721.00
2023-04-22T05:14:27.034Z,715.00
2023-04-22T05:15:27.011Z,710.00
2023-04-22T05:16:27.025Z,714.00
2023-04-22T05:17:27.006Z,708.00
2023-04-22T05:18:27.022Z,708.00
2023-04-22T05:19:27.006Z,708.00
2023-04-22T05:20:26.982Z,710.00
2023-04-22T05:21:26.958Z,699.00
2023-04-22T05:22:26.958Z,718.00
2023-04-22T05:23:26.923Z,704.00
2023-04-22T05:24:26.923Z,707.00
2023-04-22T05:25:26.905Z,689.00
2023-04-22T05:26:26.895Z,706.00
2023-04-22T05:27:26.874Z,697.00
2023-04-22T05:28:26.857Z,694.00
2023-04-22T05:29:26.821Z,690.00
2023-04-22T05:30:26.801Z,693.00
2023-04-22T05:31:27.581Z,680.00
2023-04-22T05:32:26.821Z,675.00
2023-04-22T05:33:26.746Z,678.00
2023-04-22T05:34:26.742Z,674.00
2023-04-22T05:35:26.729Z,686.00
2023-04-22T05:36:28.975Z,669.00
2023-04-22T05:37:26.669Z,696.00
2023-04-22T05:38:26.646Z,691.00
2023-04-22T05:39:26.641Z,680.00
2023-04-22T05:40:26.639Z,672.00
2023-04-22T05:41:26.608Z,678.00
2023-04-22T05:42:26.592Z,678.00
2023-04-22T05:43:26.615Z,667.00
2023-04-22T05:44:26.555Z,678.00
2023-04-22T05:45:26.541Z,663.00
2023-04-22T05:46:26.580Z,666.00
2023-04-22T05:47:26.548Z,670.00
2023-04-22T05:48:26.487Z,671.00
2023-04-22T05:49:26.476Z,663.00
2023-04-22T05:50:26.464Z,659.00
2023-04-22T05:51:26.466Z,659.00
2023-04-22T05:52:26.456Z,661.00
2023-04-22T05:53:26.446Z,659.00
2023-04-22T05:54:26.425Z,659.00
2023-04-22T05:55:26.443Z,656.00
2023-04-22T05:56:26.397Z,662.00
2023-04-22T05:57:26.390Z,658.00
2023-04-22T05:58:26.372Z,655.00
2023-04-22T05:59:26.353Z,653.00
2023-04-22T06:00:26.340Z,652.00
2023-04-22T06:01:26.346Z,651.00
2023-04-22T06:02:26.440Z,650.00
2023-04-22T06:03:26.481Z,651.00
2023-04-22T06:04:26.583Z,646.00
2023-04-22T06:05:26.419Z,651.00
2023-04-22T06:06:26.235Z,649.00
2023-04-22T06:07:26.212Z,643.00
2023-04-22T06:08:26.212Z,647.00
2023-04-22T06:09:26.205Z,646.00
2023-04-22T06:10:26.178Z,644.00
2023-04-22T06:11:26.172Z,649.00
2023-04-22T06:12:26.157Z,641.00
2023-04-22T06:13:26.174Z,642.00
2023-04-22T06:14:26.215Z,645.00
2023-04-22T06:15:26.201Z,640.00
2023-04-22T06:16:26.192Z,640.00
2023-04-22T06:17:26.213Z,639.00
2023-04-22T06:18:27.454Z,639.00
2023-04-22T06:19:26.175Z,640.00
2023-04-22T06:20:26.154Z,640.00
2023-04-22T06:21:26.161Z,640.00
2023-04-22T06:22:26.144Z,640.00
2023-04-22T06:23:26.159Z,634.00
2023-04-22T06:24:26.129Z,640.00
2023-04-22T06:25:26.108Z,636.00
2023-04-22T06:26:26.099Z,637.00
2023-04-22T06:27:26.112Z,630.00
2023-04-22T06:28:26.074Z,630.00
2023-04-22T06:29:26.080Z,631.00
2023-04-22T06:30:26.065Z,632.00
2023-04-22T06:31:26.095Z,626.00
2023-04-22T06:32:26.031Z,630.00
2023-04-22T06:33:26.013Z,630.00
2023-04-22T06:34:26.004Z,628.00
2023-04-22T06:35:25.974Z,629.00
2023-04-22T06:36:26.063Z,623.00
2023-04-22T06:37:25.945Z,621.00
2023-04-22T06:38:25.950Z,625.00
2023-04-22T06:39:25.933Z,625.00
2023-04-22T06:40:25.920Z,621.00
2023-04-22T06:41:25.914Z,622.00
2023-04-22T06:42:25.904Z,620.00
2023-04-22T06:43:25.883Z,622.00
2023-04-22T06:44:25.876Z,622.00
2023-04-22T06:45:25.847Z,620.00
2023-04-22T06:46:25.859Z,627.00
2023-04-22T06:47:25.935Z,620.00
2023-04-22T06:48:25.850Z,622.00
2023-04-22T06:49:25.884Z,615.00
2023-04-22T06:50:25.853Z,615.00
2023-04-22T06:51:25.822Z,616.00
2023-04-22T06:52:25.800Z,618.00
2023-04-22T06:53:25.768Z,615.00
2023-04-22T06:54:25.743Z,619.00
2023-04-22T06:55:25.729Z,622.00
2023-04-22T06:56:25.719Z,618.00
2023-04-22T06:57:25.689Z,617.00
2023-04-22T06:58:25.659Z,614.00
2023-04-22T06:59:25.670Z,619.00
2023-04-22T07:00:25.645Z,617.00
2023-04-22T07:01:25.697Z,617.00
2023-04-22T07:02:25.629Z,616.00
2023-04-22T07:03:25.716Z,617.00
2023-04-22T07:04:25.583Z,604.00
2023-04-22T07:05:25.551Z,613.00
2023-04-22T07:06:25.521Z,608.00
2023-04-22T07:07:25.473Z,611.00
2023-04-22T07:08:25.454Z,611.00
2023-04-22T07:09:25.432Z,612.00
2023-04-22T07:10:25.400Z,603.00
2023-04-22T07:11:25.403Z,608.00
2023-04-22T07:12:25.372Z,607.00
2023-04-22T07:13:25.342Z,600.00
2023-04-22T07:14:25.342Z,610.00
2023-04-22T07:15:25.328Z,606.00
2023-04-22T07:16:25.366Z,608.00
2023-04-22T07:17:25.366Z,602.00
2023-04-22T07:18:25.322Z,604.00
2023-04-22T07:19:25.317Z,604.00
2023-04-22T07:20:25.338Z,603.00
2023-04-22T07:21:25.323Z,595.00
2023-04-22T07:22:25.316Z,603.00
2023-04-22T07:23:25.299Z,593.00
2023-04-22T07:24:25.311Z,589.00
2023-04-22T07:25:25.295Z,591.00
2023-04-22T07:26:25.302Z,598.00
2023-04-22T07:27:25.305Z,595.00
2023-04-22T07:28:25.284Z,594.00
2023-04-22T07:29:25.274Z,595.00
2023-04-22T07:30:25.325Z,589.00
2023-04-22T07:31:25.306Z,589.00
2023-04-22T07:32:25.311Z,585.00
2023-04-22T07:33:25.308Z,589.00
2023-04-22T07:34:25.274Z,582.00
2023-04-22T07:35:25.261Z,584.00
2023-04-22T07:36:25.268Z,583.00
2023-04-22T07:37:25.260Z,584.00
2023-04-22T07:38:25.257Z,583.00
2023-04-22T07:39:25.258Z,586.00
2023-04-22T07:40:25.299Z,583.00
2023-04-22T07:41:25.239Z,582.00
2023-04-22T07:42:25.234Z,575.00
2023-04-22T07:43:25.230Z,579.00
2023-04-22T07:44:25.228Z,577.00
2023-04-22T07:45:25.211Z,572.00
2023-04-22T07:46:25.219Z,575.00
2023-04-22T07:47:25.222Z,570.00
2023-04-22T07:48:25.205Z,568.00
2023-04-22T07:49:25.207Z,569.00
2023-04-22T07:50:25.214Z,570.00
2023-04-22T07:51:25.173Z,573.00
2023-04-22T07:52:25.208Z,576.00
2023-04-22T07:53:25.146Z,572.00
2023-04-22T07:54:25.150Z,569.00
2023-04-22T07:55:25.122Z,564.00
2023-04-22T07:56:25.115Z,571.00
2023-04-22T07:57:25.091Z,561.00
2023-04-22T07:58:25.087Z,571.00
2023-04-22T07:59:25.059Z,568.00
2023-04-22T08:00:25.113Z,564.00
2023-04-22T08:01:25.049Z,557.00
2023-04-22T08:02:25.045Z,554.00
2023-04-22T08:03:25.148Z,554.00
2023-04-22T08:04:25.321Z,555.00
2023-04-22T08:05:25.049Z,554.00
2023-04-22T08:06:24.931Z,549.00
2023-04-22T08:08:24.904Z,553.00
2023-04-22T08:09:24.897Z,546.00
2023-04-22T08:10:24.885Z,545.00
2023-04-22T08:11:24.871Z,546.00
2023-04-22T08:12:24.856Z,543.00
2023-04-22T08:13:24.827Z,541.00
2023-04-22T08:14:24.802Z,541.00
2023-04-22T08:15:24.777Z,544.00
2023-04-22T08:16:24.840Z,539.00
2023-04-22T08:17:24.770Z,547.00
2023-04-22T08:18:24.721Z,547.00
2023-04-22T08:19:24.693Z,547.00
2023-04-22T08:20:24.678Z,548.00
2023-04-22T08:21:24.658Z,549.00
2023-04-22T08:22:24.646Z,546.00
2023-04-22T08:23:24.617Z,537.00
2023-04-22T08:24:24.589Z,543.00
2023-04-22T08:25:24.559Z,538.00
2023-04-22T08:26:24.562Z,538.00
2023-04-22T08:27:24.515Z,537.00
2023-04-22T08:28:24.485Z,536.00
2023-04-22T08:29:24.459Z,536.00
2023-04-22T08:30:24.464Z,537.00
2023-04-22T08:31:24.513Z,535.00
2023-04-22T08:32:24.424Z,536.00
2023-04-22T08:33:26.654Z,530.00
2023-04-22T08:34:24.366Z,528.00
2023-04-22T08:35:24.349Z,531.00
2023-04-22T08:36:24.339Z,528.00
2023-04-22T08:37:24.299Z,533.00
2023-04-22T08:38:24.307Z,526.00
2023-04-22T08:39:24.264Z,524.00
2023-04-22T08:40:24.239Z,529.00
2023-04-22T08:41:24.240Z,523.00
2023-04-22T08:42:24.205Z,525.00
2023-04-22T08:43:24.186Z,530.00
2023-04-22T08:44:24.165Z,523.00
2023-04-22T08:45:24.148Z,520.00
2023-04-22T08:46:24.190Z,528.00
2023-04-22T08:47:24.155Z,518.00
2023-04-22T08:48:24.112Z,522.00
2023-04-22T08:49:24.090Z,521.00
2023-04-22T08:50:24.084Z,526.00
2023-04-22T08:51:24.054Z,524.00
2023-04-22T08:52:24.050Z,523.00
2023-04-22T08:53:24.954Z,517.00
2023-04-22T08:54:24.033Z,523.00
2023-04-22T08:55:24.033Z,522.00
2023-04-22T08:56:24.023Z,528.00
2023-04-22T08:57:23.989Z,519.00
2023-04-22T08:58:23.993Z,526.00
2023-04-22T08:59:23.961Z,521.00
2023-04-22T09:00:23.939Z,522.00
2023-04-22T09:01:24.027Z,521.00
2023-04-22T09:02:23.984Z,523.00
2023-04-22T09:03:23.972Z,523.00
2023-04-22T09:04:23.948Z,521.00
2023-04-22T09:05:24.369Z,514.00
2023-04-22T09:06:23.855Z,519.00
2023-04-22T09:07:23.838Z,519.00
2023-04-22T09:08:23.836Z,524.00
2023-04-22T09:09:23.802Z,513.00
2023-04-22T09:10:23.805Z,515.00
2023-04-22T09:11:23.771Z,521.00
2023-04-22T09:12:23.756Z,519.00
2023-04-22T09:13:23.743Z,507.00
2023-04-22T09:14:23.708Z,515.00
2023-04-22T09:15:23.706Z,514.00
2023-04-22T09:16:23.713Z,513.00
2023-04-22T09:17:23.677Z,511.00
2023-04-22T09:18:23.655Z,511.00
2023-04-22T09:19:23.683Z,515.00
2023-04-22T09:20:23.721Z,512.00
2023-04-22T09:21:23.769Z,512.00
2023-04-22T09:22:23.789Z,517.00
2023-04-22T09:23:23.821Z,511.00
2023-04-22T09:24:23.859Z,512.00
2023-04-22T09:25:23.934Z,508.00
2023-04-22T09:26:23.944Z,519.00
2023-04-22T09:27:23.997Z,512.00
2023-04-22T09:28:24.039Z,511.00
2023-04-22T09:29:24.082Z,510.00
2023-04-22T09:30:24.141Z,511.00
2023-04-22T09:31:24.209Z,512.00
2023-04-22T09:32:24.221Z,509.00
2023-04-22T09:33:24.257Z,507.00
2023-04-22T09:34:24.295Z,513.00
2023-04-22T09:35:24.360Z,508.00
2023-04-22T09:36:24.396Z,505.00
2023-04-22T09:37:25.134Z,509.00
2023-04-22T09:38:24.465Z,506.00
2023-04-22T09:39:24.550Z,505.00
2023-04-22T09:40:24.549Z,503.00
2023-04-22T09:41:24.595Z,506.00
2023-04-22T09:42:24.642Z,503.00
2023-04-22T09:43:24.679Z,500.00
2023-04-22T09:44:24.690Z,502.00
2023-04-22T09:45:24.785Z,507.00
2023-04-22T09:46:24.865Z,500.00
2023-04-22T09:47:24.874Z,512.00
2023-04-22T09:48:24.886Z,515.00
2023-04-22T09:49:24.927Z,514.00
2023-04-22T09:50:24.967Z,504.00
2023-04-22T09:51:25.031Z,508.00
2023-04-22T09:52:25.088Z,507.00
2023-04-22T09:53:25.104Z,510.00
2023-04-22T09:54:25.135Z,507.00
2023-04-22T09:55:25.111Z,507.00
2023-04-22T09:56:25.113Z,507.00
2023-04-22T09:57:25.077Z,502.00
2023-04-22T09:58:25.055Z,510.00
2023-04-22T09:59:25.046Z,510.00
2023-04-22T10:00:25.017Z,508.00
2023-04-22T10:01:25.029Z,511.00
2023-04-22T10:02:25.051Z,517.00
2023-04-22T10:03:25.030Z,517.00
2023-04-22T10:04:24.994Z,517.00
2023-04-22T10:05:24.928Z,518.00
2023-04-22T10:06:24.921Z,513.00
2023-04-22T10:07:24.891Z,512.00
2023-04-22T10:08:24.863Z,518.00
2023-04-22T10:09:24.846Z,516.00
2023-04-22T10:10:24.825Z,512.00
2023-04-22T10:11:24.854Z,504.00
2023-04-22T10:12:32.870Z,513.00
2023-04-22T10:13:25.894Z,514.00
2023-04-22T10:14:24.869Z,514.00
2023-04-22T10:15:26.387Z,515.00
2023-04-22T10:16:24.825Z,514.00
2023-04-22T10:17:24.813Z,516.00
2023-04-22T10:18:24.763Z,514.00
2023-04-22T10:19:24.737Z,508.00
2023-04-22T10:20:24.723Z,507.00
2023-04-22T10:21:25.843Z,511.00
2023-04-22T10:22:24.758Z,504.00
2023-04-22T10:23:24.813Z,501.00
2023-04-22T10:24:24.857Z,504.00
2023-04-22T10:25:24.885Z,500.00
2023-04-22T10:26:24.918Z,506.00
2023-04-22T10:27:24.954Z,505.00
2023-04-22T10:28:25.000Z,506.00
2023-04-22T10:29:25.040Z,502.00
2023-04-22T10:30:25.137Z,507.00
2023-04-22T10:31:25.170Z,505.00
2023-04-22T10:32:25.198Z,508.00
2023-04-22T10:33:25.214Z,511.00
2023-04-22T10:34:25.215Z,507.00
2023-04-22T10:35:25.232Z,510.00
2023-04-22T10:36:25.256Z,507.00
2023-04-22T10:37:25.226Z,507.00
2023-04-22T10:38:25.205Z,507.00
2023-04-22T10:39:25.174Z,506.00
2023-04-22T10:40:25.147Z,507.00
2023-04-22T10:41:25.128Z,507.00
2023-04-22T10:42:25.111Z,503.00
2023-04-22T10:43:25.076Z,500.00
2023-04-22T10:44:25.046Z,507.00
2023-04-22T10:45:25.070Z,507.00
2023-04-22T10:46:25.152Z,508.00
2023-04-22T10:47:25.174Z,506.00
2023-04-22T10:48:25.200Z,506.00
2023-04-22T10:49:25.264Z,507.00
2023-04-22T10:50:25.293Z,503.00
2023-04-22T10:51:25.348Z,506.00
2023-04-22T10:52:25.406Z,505.00
2023-04-22T10:53:25.460Z,505.00
2023-04-22T10:54:25.519Z,504.00
2023-04-22T10:55:25.570Z,503.00
2023-04-22T10:56:25.623Z,513.00
2023-04-22T10:57:25.660Z,505.00
2023-04-22T10:58:25.735Z,508.00
2023-04-22T10:59:25.723Z,500.00
2023-04-22T11:00:25.781Z,510.00
2023-04-22T11:01:25.839Z,509.00
2023-04-22T11:02:25.915Z,509.00
2023-04-22T11:03:26.037Z,502.00
2023-04-22T11:04:25.944Z,500.00
2023-04-22T11:05:26.214Z,503.00
2023-04-22T11:06:25.970Z,510.00
2023-04-22T11:07:25.996Z,505.00
2023-04-22T11:08:25.999Z,508.00
2023-04-22T11:09:26.033Z,508.00
2023-04-22T11:10:26.047Z,502.00
2023-04-22T11:11:26.076Z,506.00
2023-04-22T11:12:26.097Z,509.00
2023-04-22T11:13:26.139Z,507.00
2023-04-22T11:14:26.177Z,505.00
2023-04-22T11:15:26.206Z,503.00
2023-04-22T11:16:26.303Z,505.00
2023-04-22T11:17:26.271Z,508.00
2023-04-22T11:18:26.329Z,502.00
2023-04-22T11:19:26.298Z,505.00
2023-04-22T11:20:26.355Z,507.00
2023-04-22T11:21:26.374Z,508.00
2023-04-22T11:22:26.407Z,506.00
2023-04-22T11:23:26.462Z,504.00
2023-04-22T11:24:26.488Z,510.00
2023-04-22T11:25:26.511Z,510.00
2023-04-22T11:26:26.555Z,503.00
2023-04-22T11:27:26.603Z,504.00
2023-04-22T11:28:26.664Z,504.00
2023-04-22T11:29:26.698Z,500.00
2023-04-22T11:30:26.758Z,516.00
2023-04-22T11:31:26.878Z,510.00
2023-04-22T11:32:26.873Z,503.00
2023-04-22T11:33:26.903Z,510.00
2023-04-22T11:34:26.936Z,506.00
2023-04-22T11:35:27.031Z,504.00
2023-04-22T11:36:27.038Z,508.00
2023-04-22T11:37:27.091Z,509.00
2023-04-22T11:38:27.135Z,506.00
2023-04-22T11:39:27.206Z,508.00
2023-04-22T11:40:30.207Z,508.00
2023-04-22T11:41:27.243Z,513.00
2023-04-22T11:42:27.212Z,500.00
2023-04-22T11:43:27.203Z,504.00
2023-04-22T11:44:27.184Z,500.00
2023-04-22T11:45:27.147Z,504.00
2023-04-22T11:46:27.268Z,504.00
2023-04-22T11:47:27.109Z,504.00
2023-04-22T11:48:27.069Z,504.00
2023-04-22T11:49:27.092Z,502.00
2023-04-22T11:50:27.015Z,504.00
2023-04-22T11:51:26.999Z,504.00
2023-04-22T11:52:26.968Z,504.00
2023-04-22T11:53:26.956Z,511.00
2023-04-22T11:54:26.933Z,504.00
2023-04-22T11:55:26.950Z,508.00
2023-04-22T11:56:26.999Z,503.00
2023-04-22T11:57:27.057Z,500.00
2023-04-22T11:58:27.156Z,500.00
2023-04-22T11:59:27.131Z,508.00
2023-04-22T12:00:27.171Z,503.00
2023-04-22T12:01:27.226Z,510.00
2023-04-22T12:02:27.501Z,511.00
2023-04-22T12:03:27.468Z,504.00
2023-04-22T12:04:27.364Z,506.00
2023-04-22T12:05:27.436Z,511.00
2023-04-22T12:06:27.462Z,505.00
2023-04-22T12:07:27.488Z,504.00
2023-04-22T12:08:27.536Z,504.00
2023-04-22T12:09:27.584Z,508.00
2023-04-22T12:10:27.620Z,507.00
2023-04-22T12:11:27.672Z,512.00
2023-04-22T12:12:27.691Z,511.00
2023-04-22T12:13:27.721Z,505.00
2023-04-22T12:14:27.754Z,507.00
2023-04-22T12:15:27.797Z,515.00
2023-04-22T12:16:27.881Z,509.00
2023-04-22T12:17:27.932Z,506.00
2023-04-22T12:18:27.931Z,506.00
2023-04-22T12:19:27.981Z,516.00
2023-04-22T12:20:28.050Z,512.00
2023-04-22T12:21:28.259Z,514.00
2023-04-22T12:22:28.120Z,514.00
2023-04-22T12:23:28.094Z,514.00
2023-04-22T12:24:28.073Z,515.00
2023-04-22T12:25:28.039Z,515.00
2023-04-22T12:26:28.029Z,517.00
2023-04-22T12:27:27.998Z,515.00